sensor_id;sensor_type;location;lat;lon;timestamp;P1;durP1;ratioP1;P2;durP2;ratioP2
8397;SDS011;4236;54.504;9.588;2024-02-04T00:00:56;44.97;;;41.17;;
8397;SDS011;4236;54.504;9.588;2024-02-04T00:03:24;45.50;;;41.70;;
8397;SDS011;4236;54.504;9.588;2024-02-04T00:05:52;46.57;;;42.20;;
8397;SDS011;4236;54.504;9.588;2024-02-04T00:08:21;47.63;;;42.83;;
8397;SDS011;4236;54.504;9.588;2024-02-04T00:10:49;47.00;;;42.70;;
8397;SDS011;4236;54.504;9.588;2024-02-04T00:13:17;44.90;;;40.67;;
8397;SDS011;4236;54.504;9.588;2024-02-04T00:15:45;46.33;;;42.33;;
8397;SDS011;4236;54.504;9.588;2024-02-04T00:18:13;44.63;;;40.50;;
8397;SDS011;4236;54.504;9.588;2024-02-04T00:20:41;44.10;;;40.60;;
8397;SDS011;4236;54.504;9.588;2024-02-04T00:23:09;45.00;;;41.40;;
8397;SDS011;4236;54.504;9.588;2024-02-04T00:25:38;47.10;;;42.33;;
8397;SDS011;4236;54.504;9.588;2024-02-04T00:28:07;47.27;;;42.70;;
8397;SDS011;4236;54.504;9.588;2024-02-04T00:30:38;44.87;;;41.33;;
8397;SDS011;4236;54.504;9.588;2024-02-04T00:33:06;48.47;;;44.43;;
8397;SDS011;4236;54.504;9.588;2024-02-04T00:35:34;45.47;;;41.53;;
8397;SDS011;4236;54.504;9.588;2024-02-04T00:38:01;46.13;;;42.73;;
8397;SDS011;4236;54.504;9.588;2024-02-04T00:40:30;47.43;;;43.23;;
8397;SDS011;4236;54.504;9.588;2024-02-04T00:43:02;48.77;;;44.30;;
8397;SDS011;4236;54.504;9.588;2024-02-04T00:45:30;46.40;;;42.97;;
8397;SDS011;4236;54.504;9.588;2024-02-04T00:47:58;43.43;;;40.07;;
8397;SDS011;4236;54.504;9.588;2024-02-04T00:50:26;43.70;;;39.63;;
8397;SDS011;4236;54.504;9.588;2024-02-04T00:52:54;45.13;;;41.63;;
8397;SDS011;4236;54.504;9.588;2024-02-04T00:55:22;44.40;;;41.10;;
8397;SDS011;4236;54.504;9.588;2024-02-04T00:57:49;46.67;;;42.97;;
8397;SDS011;4236;54.504;9.588;2024-02-04T01:00:19;44.17;;;40.37;;
8397;SDS011;4236;54.504;9.588;2024-02-04T01:02:46;49.37;;;42.17;;
8397;SDS011;4236;54.504;9.588;2024-02-04T01:05:14;46.60;;;42.50;;
8397;SDS011;4236;54.504;9.588;2024-02-04T01:07:42;46.37;;;42.47;;
8397;SDS011;4236;54.504;9.588;2024-02-04T01:10:10;48.30;;;44.60;;
8397;SDS011;4236;54.504;9.588;2024-02-04T01:12:38;47.10;;;43.37;;
8397;SDS011;4236;54.504;9.588;2024-02-04T01:15:06;46.17;;;42.60;;
8397;SDS011;4236;54.504;9.588;2024-02-04T01:17:35;48.63;;;44.33;;
8397;SDS011;4236;54.504;9.588;2024-02-04T01:20:03;46.37;;;42.53;;
8397;SDS011;4236;54.504;9.588;2024-02-04T01:22:32;45.13;;;41.40;;
8397;SDS011;4236;54.504;9.588;2024-02-04T01:24:59;45.10;;;41.27;;
8397;SDS011;4236;54.504;9.588;2024-02-04T01:27:27;45.90;;;41.67;;
8397;SDS011;4236;54.504;9.588;2024-02-04T01:29:55;46.13;;;42.30;;
8397;SDS011;4236;54.504;9.588;2024-02-04T01:32:23;48.47;;;44.23;;
8397;SDS011;4236;54.504;9.588;2024-02-04T01:34:53;47.47;;;42.57;;
8397;SDS011;4236;54.504;9.588;2024-02-04T01:37:20;46.10;;;42.37;;
8397;SDS011;4236;54.504;9.588;2024-02-04T01:39:48;44.57;;;40.87;;
8397;SDS011;4236;54.504;9.588;2024-02-04T01:42:16;45.07;;;41.20;;
8397;SDS011;4236;54.504;9.588;2024-02-04T01:44:44;45.50;;;41.60;;
8397;SDS011;4236;54.504;9.588;2024-02-04T01:47:12;44.60;;;41.50;;
8397;SDS011;4236;54.504;9.588;2024-02-04T01:49:40;45.60;;;42.03;;
8397;SDS011;4236;54.504;9.588;2024-02-04T01:52:11;46.27;;;43.13;;
8397;SDS011;4236;54.504;9.588;2024-02-04T01:54:40;47.57;;;42.73;;
8397;SDS011;4236;54.504;9.588;2024-02-04T01:57:10;48.13;;;42.87;;
8397;SDS011;4236;54.504;9.588;2024-02-04T01:59:39;47.10;;;43.13;;
8397;SDS011;4236;54.504;9.588;2024-02-04T02:02:07;45.67;;;41.80;;
8397;SDS011;4236;54.504;9.588;2024-02-04T02:04:35;46.87;;;43.13;;
8397;SDS011;4236;54.504;9.588;2024-02-04T02:07:03;46.70;;;42.13;;
8397;SDS011;4236;54.504;9.588;2024-02-04T02:09:35;45.20;;;41.23;;
8397;SDS011;4236;54.504;9.588;2024-02-04T02:12:06;44.53;;;40.40;;
8397;SDS011;4236;54.504;9.588;2024-02-04T02:14:46;43.87;;;40.43;;
8397;SDS011;4236;54.504;9.588;2024-02-04T02:17:19;47.90;;;43.90;;
8397;SDS011;4236;54.504;9.588;2024-02-04T02:19:54;48.00;;;43.50;;
8397;SDS011;4236;54.504;9.588;2024-02-04T02:22:32;44.40;;;41.17;;
8397;SDS011;4236;54.504;9.588;2024-02-04T02:25:08;45.13;;;41.27;;
8397;SDS011;4236;54.504;9.588;2024-02-04T02:27:45;44.13;;;40.50;;
8397;SDS011;4236;54.504;9.588;2024-02-04T02:30:13;44.07;;;40.30;;
8397;SDS011;4236;54.504;9.588;2024-02-04T02:32:41;44.07;;;39.87;;
8397;SDS011;4236;54.504;9.588;2024-02-04T02:35:10;45.60;;;40.63;;
8397;SDS011;4236;54.504;9.588;2024-02-04T02:37:40;44.17;;;39.97;;
8397;SDS011;4236;54.504;9.588;2024-02-04T02:40:14;44.33;;;40.83;;
8397;SDS011;4236;54.504;9.588;2024-02-04T02:42:48;46.47;;;41.77;;
8397;SDS011;4236;54.504;9.588;2024-02-04T02:45:19;47.97;;;43.00;;
8397;SDS011;4236;54.504;9.588;2024-02-04T02:47:52;44.37;;;40.27;;
8397;SDS011;4236;54.504;9.588;2024-02-04T02:50:21;46.60;;;42.17;;
8397;SDS011;4236;54.504;9.588;2024-02-04T02:52:49;45.23;;;41.33;;
8397;SDS011;4236;54.504;9.588;2024-02-04T02:55:18;46.50;;;42.47;;
8397;SDS011;4236;54.504;9.588;2024-02-04T02:57:46;49.13;;;44.60;;
8397;SDS011;4236;54.504;9.588;2024-02-04T03:00:14;51.53;;;42.23;;
8397;SDS011;4236;54.504;9.588;2024-02-04T03:02:42;45.67;;;41.83;;
8397;SDS011;4236;54.504;9.588;2024-02-04T03:05:10;47.23;;;43.80;;
8397;SDS011;4236;54.504;9.588;2024-02-04T03:07:38;47.47;;;43.13;;
8397;SDS011;4236;54.504;9.588;2024-02-04T03:10:06;45.73;;;42.37;;
8397;SDS011;4236;54.504;9.588;2024-02-04T03:12:36;45.13;;;41.37;;
8397;SDS011;4236;54.504;9.588;2024-02-04T03:15:05;45.90;;;41.80;;
8397;SDS011;4236;54.504;9.588;2024-02-04T03:17:33;45.20;;;40.43;;
8397;SDS011;4236;54.504;9.588;2024-02-04T03:20:01;46.17;;;41.33;;
8397;SDS011;4236;54.504;9.588;2024-02-04T03:22:29;45.60;;;41.30;;
8397;SDS011;4236;54.504;9.588;2024-02-04T03:24:57;46.00;;;42.37;;
8397;SDS011;4236;54.504;9.588;2024-02-04T03:27:25;44.47;;;40.93;;
8397;SDS011;4236;54.504;9.588;2024-02-04T03:29:54;44.37;;;40.40;;
8397;SDS011;4236;54.504;9.588;2024-02-04T03:32:22;45.87;;;42.07;;
8397;SDS011;4236;54.504;9.588;2024-02-04T03:34:50;46.07;;;42.17;;
8397;SDS011;4236;54.504;9.588;2024-02-04T03:37:18;45.13;;;41.07;;
8397;SDS011;4236;54.504;9.588;2024-02-04T03:39:46;46.37;;;41.93;;
8397;SDS011;4236;54.504;9.588;2024-02-04T03:42:13;45.13;;;41.13;;
8397;SDS011;4236;54.504;9.588;2024-02-04T03:44:41;46.10;;;41.80;;
8397;SDS011;4236;54.504;9.588;2024-02-04T03:47:10;48.97;;;45.13;;
8397;SDS011;4236;54.504;9.588;2024-02-04T03:49:38;45.40;;;41.40;;
8397;SDS011;4236;54.504;9.588;2024-02-04T03:52:06;51.63;;;46.20;;
8397;SDS011;4236;54.504;9.588;2024-02-04T03:54:34;45.67;;;41.17;;
8397;SDS011;4236;54.504;9.588;2024-02-04T03:57:02;49.03;;;43.93;;
8397;SDS011;4236;54.504;9.588;2024-02-04T03:59:29;48.90;;;44.90;;
8397;SDS011;4236;54.504;9.588;2024-02-04T04:01:57;44.70;;;41.50;;
8397;SDS011;4236;54.504;9.588;2024-02-04T04:04:26;47.83;;;43.33;;
8397;SDS011;4236;54.504;9.588;2024-02-04T04:06:54;48.07;;;43.57;;
8397;SDS011;4236;54.504;9.588;2024-02-04T04:09:22;48.73;;;44.60;;
8397;SDS011;4236;54.504;9.588;2024-02-04T04:11:50;46.60;;;42.70;;
8397;SDS011;4236;54.504;9.588;2024-02-04T04:14:18;47.83;;;43.57;;
8397;SDS011;4236;54.504;9.588;2024-02-04T04:16:46;47.97;;;43.87;;
8397;SDS011;4236;54.504;9.588;2024-02-04T04:19:14;46.77;;;42.50;;
8397;SDS011;4236;54.504;9.588;2024-02-04T04:21:43;44.33;;;40.30;;
8397;SDS011;4236;54.504;9.588;2024-02-04T04:24:11;45.70;;;41.70;;
8397;SDS011;4236;54.504;9.588;2024-02-04T04:26:42;47.90;;;42.93;;
8397;SDS011;4236;54.504;9.588;2024-02-04T04:29:09;47.93;;;43.80;;
8397;SDS011;4236;54.504;9.588;2024-02-04T04:31:37;47.63;;;43.70;;
8397;SDS011;4236;54.504;9.588;2024-02-04T04:34:05;51.43;;;42.87;;
8397;SDS011;4236;54.504;9.588;2024-02-04T04:36:33;46.70;;;43.13;;
8397;SDS011;4236;54.504;9.588;2024-02-04T04:39:02;45.97;;;41.60;;
8397;SDS011;4236;54.504;9.588;2024-02-04T04:41:30;44.80;;;40.77;;
8397;SDS011;4236;54.504;9.588;2024-02-04T04:43:58;48.03;;;42.77;;
8397;SDS011;4236;54.504;9.588;2024-02-04T04:46:26;49.47;;;44.83;;
8397;SDS011;4236;54.504;9.588;2024-02-04T04:48:53;46.60;;;42.33;;
8397;SDS011;4236;54.504;9.588;2024-02-04T04:51:24;49.27;;;44.73;;
8397;SDS011;4236;54.504;9.588;2024-02-04T04:53:53;48.83;;;44.10;;
8397;SDS011;4236;54.504;9.588;2024-02-04T04:56:23;48.10;;;44.00;;
8397;SDS011;4236;54.504;9.588;2024-02-04T04:58:50;47.00;;;43.00;;
8397;SDS011;4236;54.504;9.588;2024-02-04T05:01:19;48.93;;;44.20;;
8397;SDS011;4236;54.504;9.588;2024-02-04T05:03:47;51.50;;;44.10;;
8397;SDS011;4236;54.504;9.588;2024-02-04T05:06:16;44.10;;;40.70;;
8397;SDS011;4236;54.504;9.588;2024-02-04T05:08:43;45.43;;;40.87;;
8397;SDS011;4236;54.504;9.588;2024-02-04T05:11:11;46.00;;;42.03;;
8397;SDS011;4236;54.504;9.588;2024-02-04T05:13:40;47.60;;;43.57;;
8397;SDS011;4236;54.504;9.588;2024-02-04T05:16:08;48.10;;;43.77;;
8397;SDS011;4236;54.504;9.588;2024-02-04T05:18:36;44.70;;;41.30;;
8397;SDS011;4236;54.504;9.588;2024-02-04T05:21:04;47.13;;;43.57;;
8397;SDS011;4236;54.504;9.588;2024-02-04T05:23:32;46.70;;;42.90;;
8397;SDS011;4236;54.504;9.588;2024-02-04T05:26:02;47.00;;;42.60;;
8397;SDS011;4236;54.504;9.588;2024-02-04T05:28:31;46.00;;;41.30;;
8397;SDS011;4236;54.504;9.588;2024-02-04T05:31:00;46.10;;;41.93;;
8397;SDS011;4236;54.504;9.588;2024-02-04T05:33:28;48.20;;;43.50;;
8397;SDS011;4236;54.504;9.588;2024-02-04T05:35:56;48.40;;;44.40;;
8397;SDS011;4236;54.504;9.588;2024-02-04T05:38:24;48.50;;;44.23;;
8397;SDS011;4236;54.504;9.588;2024-02-04T05:40:52;50.20;;;42.30;;
8397;SDS011;4236;54.504;9.588;2024-02-04T05:43:20;45.27;;;41.23;;
8397;SDS011;4236;54.504;9.588;2024-02-04T05:45:48;47.33;;;42.70;;
8397;SDS011;4236;54.504;9.588;2024-02-04T05:48:17;49.17;;;44.37;;
8397;SDS011;4236;54.504;9.588;2024-02-04T05:50:46;47.47;;;42.37;;
8397;SDS011;4236;54.504;9.588;2024-02-04T05:53:14;47.33;;;42.53;;
8397;SDS011;4236;54.504;9.588;2024-02-04T05:55:42;45.57;;;41.47;;
8397;SDS011;4236;54.504;9.588;2024-02-04T05:58:09;46.10;;;41.53;;
8397;SDS011;4236;54.504;9.588;2024-02-04T06:00:39;46.73;;;42.13;;
8397;SDS011;4236;54.504;9.588;2024-02-04T06:03:07;46.47;;;42.40;;
8397;SDS011;4236;54.504;9.588;2024-02-04T06:05:37;45.60;;;42.00;;
8397;SDS011;4236;54.504;9.588;2024-02-04T06:08:05;45.80;;;41.80;;
8397;SDS011;4236;54.504;9.588;2024-02-04T06:10:33;46.43;;;42.07;;
8397;SDS011;4236;54.504;9.588;2024-02-04T06:13:01;46.50;;;42.70;;
8397;SDS011;4236;54.504;9.588;2024-02-04T06:15:30;46.47;;;41.70;;
8397;SDS011;4236;54.504;9.588;2024-02-04T06:17:58;48.43;;;41.70;;
8397;SDS011;4236;54.504;9.588;2024-02-04T06:20:25;47.33;;;42.53;;
8397;SDS011;4236;54.504;9.588;2024-02-04T06:22:54;44.73;;;40.27;;
8397;SDS011;4236;54.504;9.588;2024-02-04T06:25:24;46.87;;;42.13;;
8397;SDS011;4236;54.504;9.588;2024-02-04T06:27:52;43.07;;;39.43;;
8397;SDS011;4236;54.504;9.588;2024-02-04T06:30:19;42.80;;;39.20;;
8397;SDS011;4236;54.504;9.588;2024-02-04T06:32:47;43.97;;;40.27;;
8397;SDS011;4236;54.504;9.588;2024-02-04T06:35:16;46.93;;;41.63;;
8397;SDS011;4236;54.504;9.588;2024-02-04T06:37:44;45.83;;;41.70;;
8397;SDS011;4236;54.504;9.588;2024-02-04T06:40:13;43.73;;;39.70;;
8397;SDS011;4236;54.504;9.588;2024-02-04T06:42:41;43.63;;;39.50;;
8397;SDS011;4236;54.504;9.588;2024-02-04T06:45:09;49.07;;;42.10;;
8397;SDS011;4236;54.504;9.588;2024-02-04T06:47:37;44.67;;;40.80;;
8397;SDS011;4236;54.504;9.588;2024-02-04T06:50:06;47.73;;;42.80;;
8397;SDS011;4236;54.504;9.588;2024-02-04T06:52:35;49.10;;;44.57;;
8397;SDS011;4236;54.504;9.588;2024-02-04T06:55:03;48.20;;;43.07;;
8397;SDS011;4236;54.504;9.588;2024-02-04T06:57:33;46.73;;;42.10;;
8397;SDS011;4236;54.504;9.588;2024-02-04T07:00:01;44.33;;;40.33;;
8397;SDS011;4236;54.504;9.588;2024-02-04T07:02:31;46.53;;;42.33;;
8397;SDS011;4236;54.504;9.588;2024-02-04T07:04:59;46.00;;;41.50;;
8397;SDS011;4236;54.504;9.588;2024-02-04T07:07:27;46.30;;;41.60;;
8397;SDS011;4236;54.504;9.588;2024-02-04T07:09:56;46.60;;;41.70;;
8397;SDS011;4236;54.504;9.588;2024-02-04T07:12:24;44.80;;;40.83;;
8397;SDS011;4236;54.504;9.588;2024-02-04T07:14:53;49.47;;;44.17;;
8397;SDS011;4236;54.504;9.588;2024-02-04T07:17:21;47.20;;;42.87;;
8397;SDS011;4236;54.504;9.588;2024-02-04T07:19:49;45.73;;;41.23;;
8397;SDS011;4236;54.504;9.588;2024-02-04T07:22:17;41.80;;;37.77;;
8397;SDS011;4236;54.504;9.588;2024-02-04T07:24:45;42.43;;;39.33;;
8397;SDS011;4236;54.504;9.588;2024-02-04T07:27:12;43.90;;;39.43;;
8397;SDS011;4236;54.504;9.588;2024-02-04T07:29:40;43.13;;;39.07;;
8397;SDS011;4236;54.504;9.588;2024-02-04T07:32:09;45.13;;;40.83;;
8397;SDS011;4236;54.504;9.588;2024-02-04T07:34:37;42.57;;;38.80;;
8397;SDS011;4236;54.504;9.588;2024-02-04T07:37:05;43.47;;;39.00;;
8397;SDS011;4236;54.504;9.588;2024-02-04T07:39:33;41.73;;;38.23;;
8397;SDS011;4236;54.504;9.588;2024-02-04T07:42:02;44.20;;;39.57;;
8397;SDS011;4236;54.504;9.588;2024-02-04T07:44:30;41.33;;;37.23;;
8397;SDS011;4236;54.504;9.588;2024-02-04T07:46:58;40.17;;;36.80;;
8397;SDS011;4236;54.504;9.588;2024-02-04T07:49:27;45.10;;;41.00;;
8397;SDS011;4236;54.504;9.588;2024-02-04T07:51:55;43.33;;;39.13;;
8397;SDS011;4236;54.504;9.588;2024-02-04T07:54:23;43.37;;;36.73;;
8397;SDS011;4236;54.504;9.588;2024-02-04T07:56:51;41.97;;;37.97;;
8397;SDS011;4236;54.504;9.588;2024-02-04T07:59:18;41.70;;;37.73;;
8397;SDS011;4236;54.504;9.588;2024-02-04T08:01:46;40.60;;;37.20;;
8397;SDS011;4236;54.504;9.588;2024-02-04T08:04:14;46.20;;;37.17;;
8397;SDS011;4236;54.504;9.588;2024-02-04T08:06:43;39.37;;;35.87;;
8397;SDS011;4236;54.504;9.588;2024-02-04T08:09:11;39.87;;;36.50;;
8397;SDS011;4236;54.504;9.588;2024-02-04T08:11:39;42.90;;;38.63;;
8397;SDS011;4236;54.504;9.588;2024-02-04T08:14:07;42.83;;;38.80;;
8397;SDS011;4236;54.504;9.588;2024-02-04T08:16:35;42.37;;;38.63;;
8397;SDS011;4236;54.504;9.588;2024-02-04T08:19:03;40.13;;;36.07;;
8397;SDS011;4236;54.504;9.588;2024-02-04T08:21:33;39.47;;;34.40;;
8397;SDS011;4236;54.504;9.588;2024-02-04T08:24:02;41.60;;;37.13;;
8397;SDS011;4236;54.504;9.588;2024-02-04T08:26:30;39.43;;;35.80;;
8397;SDS011;4236;54.504;9.588;2024-02-04T08:28:57;40.37;;;36.30;;
8397;SDS011;4236;54.504;9.588;2024-02-04T08:31:25;39.70;;;35.87;;
8397;SDS011;4236;54.504;9.588;2024-02-04T08:33:53;38.67;;;35.07;;
8397;SDS011;4236;54.504;9.588;2024-02-04T08:36:21;38.37;;;34.67;;
8397;SDS011;4236;54.504;9.588;2024-02-04T08:38:49;40.90;;;36.80;;
8397;SDS011;4236;54.504;9.588;2024-02-04T08:41:18;41.57;;;37.23;;
8397;SDS011;4236;54.504;9.588;2024-02-04T08:43:46;40.73;;;37.07;;
8397;SDS011;4236;54.504;9.588;2024-02-04T08:46:14;41.23;;;36.77;;
8397;SDS011;4236;54.504;9.588;2024-02-04T08:48:42;41.33;;;36.03;;
8397;SDS011;4236;54.504;9.588;2024-02-04T08:51:10;49.30;;;36.20;;
8397;SDS011;4236;54.504;9.588;2024-02-04T08:53:39;40.80;;;35.53;;
8397;SDS011;4236;54.504;9.588;2024-02-04T08:56:07;39.73;;;35.80;;
8397;SDS011;4236;54.504;9.588;2024-02-04T08:58:36;39.60;;;35.63;;
8397;SDS011;4236;54.504;9.588;2024-02-04T09:01:04;38.73;;;34.77;;
8397;SDS011;4236;54.504;9.588;2024-02-04T09:03:32;40.90;;;36.50;;
8397;SDS011;4236;54.504;9.588;2024-02-04T09:06:01;40.40;;;36.33;;
8397;SDS011;4236;54.504;9.588;2024-02-04T09:08:27;41.33;;;37.17;;
8397;SDS011;4236;54.504;9.588;2024-02-04T09:10:55;39.87;;;36.10;;
8397;SDS011;4236;54.504;9.588;2024-02-04T09:13:23;37.63;;;34.20;;
8397;SDS011;4236;54.504;9.588;2024-02-04T09:15:52;46.27;;;36.97;;
8397;SDS011;4236;54.504;9.588;2024-02-04T09:18:21;41.83;;;37.17;;
8397;SDS011;4236;54.504;9.588;2024-02-04T09:20:49;40.37;;;37.13;;
8397;SDS011;4236;54.504;9.588;2024-02-04T09:23:17;43.60;;;36.50;;
8397;SDS011;4236;54.504;9.588;2024-02-04T09:25:45;39.17;;;35.47;;
8397;SDS011;4236;54.504;9.588;2024-02-04T09:28:13;40.80;;;37.60;;
8397;SDS011;4236;54.504;9.588;2024-02-04T09:30:42;39.80;;;35.57;;
8397;SDS011;4236;54.504;9.588;2024-02-04T09:33:11;42.93;;;37.30;;
8397;SDS011;4236;54.504;9.588;2024-02-04T09:35:39;40.23;;;36.73;;
8397;SDS011;4236;54.504;9.588;2024-02-04T09:38:07;40.83;;;37.40;;
8397;SDS011;4236;54.504;9.588;2024-02-04T09:40:39;40.30;;;36.67;;
8397;SDS011;4236;54.504;9.588;2024-02-04T09:43:07;39.50;;;35.50;;
8397;SDS011;4236;54.504;9.588;2024-02-04T09:45:36;40.67;;;36.30;;
8397;SDS011;4236;54.504;9.588;2024-02-04T09:48:06;41.77;;;37.40;;
8397;SDS011;4236;54.504;9.588;2024-02-04T09:50:37;38.90;;;35.40;;
8397;SDS011;4236;54.504;9.588;2024-02-04T09:53:06;39.53;;;35.40;;
8397;SDS011;4236;54.504;9.588;2024-02-04T09:55:36;38.30;;;34.37;;
8397;SDS011;4236;54.504;9.588;2024-02-04T09:58:07;41.20;;;34.80;;
8397;SDS011;4236;54.504;9.588;2024-02-04T10:00:35;38.07;;;34.33;;
8397;SDS011;4236;54.504;9.588;2024-02-04T10:03:06;39.53;;;35.70;;
8397;SDS011;4236;54.504;9.588;2024-02-04T10:05:34;40.93;;;36.57;;
8397;SDS011;4236;54.504;9.588;2024-02-04T10:08:04;41.83;;;38.23;;
8397;SDS011;4236;54.504;9.588;2024-02-04T10:10:32;41.87;;;37.53;;
8397;SDS011;4236;54.504;9.588;2024-02-04T10:13:04;41.13;;;36.93;;
8397;SDS011;4236;54.504;9.588;2024-02-04T10:15:33;40.57;;;36.57;;
8397;SDS011;4236;54.504;9.588;2024-02-04T10:18:02;44.27;;;36.90;;
8397;SDS011;4236;54.504;9.588;2024-02-04T10:20:30;37.87;;;34.87;;
8397;SDS011;4236;54.504;9.588;2024-02-04T10:22:59;40.27;;;36.90;;
8397;SDS011;4236;54.504;9.588;2024-02-04T10:25:28;38.83;;;35.60;;
8397;SDS011;4236;54.504;9.588;2024-02-04T10:27:56;38.77;;;35.63;;
8397;SDS011;4236;54.504;9.588;2024-02-04T10:30:24;38.47;;;35.13;;
8397;SDS011;4236;54.504;9.588;2024-02-04T10:32:52;39.73;;;36.20;;
8397;SDS011;4236;54.504;9.588;2024-02-04T10:35:20;44.83;;;37.27;;
8397;SDS011;4236;54.504;9.588;2024-02-04T10:37:49;38.73;;;35.40;;
8397;SDS011;4236;54.504;9.588;2024-02-04T10:40:18;38.93;;;35.47;;
8397;SDS011;4236;54.504;9.588;2024-02-04T10:42:47;44.30;;;37.87;;
8397;SDS011;4236;54.504;9.588;2024-02-04T10:45:18;38.23;;;34.90;;
8397;SDS011;4236;54.504;9.588;2024-02-04T10:47:52;40.80;;;37.20;;
8397;SDS011;4236;54.504;9.588;2024-02-04T10:50:23;41.03;;;37.33;;
8397;SDS011;4236;54.504;9.588;2024-02-04T10:52:52;38.93;;;35.47;;
8397;SDS011;4236;54.504;9.588;2024-02-04T10:55:25;41.30;;;37.30;;
8397;SDS011;4236;54.504;9.588;2024-02-04T10:57:57;39.17;;;35.73;;
8397;SDS011;4236;54.504;9.588;2024-02-04T11:00:26;40.90;;;36.60;;
8397;SDS011;4236;54.504;9.588;2024-02-04T11:02:56;39.47;;;36.00;;
8397;SDS011;4236;54.504;9.588;2024-02-04T11:05:25;42.63;;;37.67;;
8397;SDS011;4236;54.504;9.588;2024-02-04T11:07:53;40.17;;;35.60;;
8397;SDS011;4236;54.504;9.588;2024-02-04T11:10:21;39.60;;;35.73;;
8397;SDS011;4236;54.504;9.588;2024-02-04T11:12:49;41.50;;;34.40;;
8397;SDS011;4236;54.504;9.588;2024-02-04T11:15:20;38.37;;;34.67;;
8397;SDS011;4236;54.504;9.588;2024-02-04T11:18:05;39.57;;;35.47;;
8397;SDS011;4236;54.504;9.588;2024-02-04T11:20:51;39.20;;;34.47;;
8397;SDS011;4236;54.504;9.588;2024-02-04T11:23:41;39.83;;;36.10;;
8397;SDS011;4236;54.504;9.588;2024-02-04T11:26:19;48.20;;;37.33;;
8397;SDS011;4236;54.504;9.588;2024-02-04T11:28:48;43.47;;;35.83;;
8397;SDS011;4236;54.504;9.588;2024-02-04T11:31:18;39.33;;;34.87;;
8397;SDS011;4236;54.504;9.588;2024-02-04T11:33:46;39.93;;;35.70;;
8397;SDS011;4236;54.504;9.588;2024-02-04T11:36:14;42.77;;;37.90;;
8397;SDS011;4236;54.504;9.588;2024-02-04T11:38:47;39.20;;;35.67;;
8397;SDS011;4236;54.504;9.588;2024-02-04T11:41:21;41.17;;;36.73;;
8397;SDS011;4236;54.504;9.588;2024-02-04T11:43:51;41.53;;;37.03;;
8397;SDS011;4236;54.504;9.588;2024-02-04T11:46:28;44.63;;;36.10;;
8397;SDS011;4236;54.504;9.588;2024-02-04T11:48:59;45.80;;;36.63;;
8397;SDS011;4236;54.504;9.588;2024-02-04T11:51:28;39.43;;;35.80;;
8397;SDS011;4236;54.504;9.588;2024-02-04T11:53:56;46.17;;;36.90;;
8397;SDS011;4236;54.504;9.588;2024-02-04T11:56:24;41.10;;;36.87;;
8397;SDS011;4236;54.504;9.588;2024-02-04T11:58:53;39.27;;;35.40;;
8397;SDS011;4236;54.504;9.588;2024-02-04T12:01:21;41.90;;;34.30;;
8397;SDS011;4236;54.504;9.588;2024-02-04T12:03:51;39.40;;;35.00;;
8397;SDS011;4236;54.504;9.588;2024-02-04T12:06:20;41.57;;;36.67;;
8397;SDS011;4236;54.504;9.588;2024-02-04T12:08:48;44.00;;;36.77;;
8397;SDS011;4236;54.504;9.588;2024-02-04T12:11:16;42.40;;;36.00;;
8397;SDS011;4236;54.504;9.588;2024-02-04T12:13:44;41.20;;;36.40;;
8397;SDS011;4236;54.504;9.588;2024-02-04T12:16:13;43.93;;;36.80;;
8397;SDS011;4236;54.504;9.588;2024-02-04T12:18:47;39.07;;;35.03;;
8397;SDS011;4236;54.504;9.588;2024-02-04T12:21:17;46.83;;;36.40;;
8397;SDS011;4236;54.504;9.588;2024-02-04T12:23:45;40.90;;;36.50;;
8397;SDS011;4236;54.504;9.588;2024-02-04T12:26:13;40.27;;;36.60;;
8397;SDS011;4236;54.504;9.588;2024-02-04T12:28:41;40.17;;;36.20;;
8397;SDS011;4236;54.504;9.588;2024-02-04T12:31:15;40.00;;;35.23;;
8397;SDS011;4236;54.504;9.588;2024-02-04T12:33:51;39.87;;;36.20;;
8397;SDS011;4236;54.504;9.588;2024-02-04T12:36:21;40.20;;;35.97;;
8397;SDS011;4236;54.504;9.588;2024-02-04T12:38:53;42.83;;;38.93;;
8397;SDS011;4236;54.504;9.588;2024-02-04T12:41:21;41.70;;;37.30;;
8397;SDS011;4236;54.504;9.588;2024-02-04T12:43:50;44.80;;;36.40;;
8397;SDS011;4236;54.504;9.588;2024-02-04T12:46:19;39.80;;;35.57;;
8397;SDS011;4236;54.504;9.588;2024-02-04T12:48:50;44.07;;;36.97;;
8397;SDS011;4236;54.504;9.588;2024-02-04T12:51:26;41.20;;;36.77;;
8397;SDS011;4236;54.504;9.588;2024-02-04T12:54:01;44.23;;;35.40;;
8397;SDS011;4236;54.504;9.588;2024-02-04T12:56:39;43.87;;;37.77;;
8397;SDS011;4236;54.504;9.588;2024-02-04T12:59:08;44.50;;;39.50;;
8397;SDS011;4236;54.504;9.588;2024-02-04T13:01:36;42.80;;;38.87;;
8397;SDS011;4236;54.504;9.588;2024-02-04T13:04:05;44.27;;;39.37;;
8397;SDS011;4236;54.504;9.588;2024-02-04T13:06:38;46.40;;;38.80;;
8397;SDS011;4236;54.504;9.588;2024-02-04T13:09:06;56.50;;;41.57;;
8397;SDS011;4236;54.504;9.588;2024-02-04T13:11:35;43.50;;;38.90;;
8397;SDS011;4236;54.504;9.588;2024-02-04T13:14:03;47.07;;;38.97;;
8397;SDS011;4236;54.504;9.588;2024-02-04T13:16:31;41.57;;;37.90;;
8397;SDS011;4236;54.504;9.588;2024-02-04T13:18:59;42.47;;;38.03;;
8397;SDS011;4236;54.504;9.588;2024-02-04T13:21:27;41.87;;;37.63;;
8397;SDS011;4236;54.504;9.588;2024-02-04T13:23:56;42.07;;;37.67;;
8397;SDS011;4236;54.504;9.588;2024-02-04T13:26:24;42.40;;;38.00;;
8397;SDS011;4236;54.504;9.588;2024-02-04T13:28:52;44.33;;;37.97;;
8397;SDS011;4236;54.504;9.588;2024-02-04T13:31:20;40.70;;;36.83;;
8397;SDS011;4236;54.504;9.588;2024-02-04T13:33:48;43.10;;;38.00;;
8397;SDS011;4236;54.504;9.588;2024-02-04T13:36:16;42.43;;;37.93;;
8397;SDS011;4236;54.504;9.588;2024-02-04T13:38:43;41.23;;;36.67;;
8397;SDS011;4236;54.504;9.588;2024-02-04T13:41:15;41.50;;;37.90;;
8397;SDS011;4236;54.504;9.588;2024-02-04T13:43:43;41.37;;;37.20;;
8397;SDS011;4236;54.504;9.588;2024-02-04T13:46:10;41.60;;;38.10;;
8397;SDS011;4236;54.504;9.588;2024-02-04T13:48:38;43.43;;;39.13;;
8397;SDS011;4236;54.504;9.588;2024-02-04T13:51:06;41.40;;;37.13;;
8397;SDS011;4236;54.504;9.588;2024-02-04T13:53:34;43.27;;;39.00;;
8397;SDS011;4236;54.504;9.588;2024-02-04T13:56:02;40.07;;;35.97;;
8397;SDS011;4236;54.504;9.588;2024-02-04T13:58:32;40.80;;;36.90;;
8397;SDS011;4236;54.504;9.588;2024-02-04T14:01:00;41.67;;;37.10;;
8397;SDS011;4236;54.504;9.588;2024-02-04T14:03:27;40.83;;;36.80;;
8397;SDS011;4236;54.504;9.588;2024-02-04T14:05:55;43.53;;;36.60;;
8397;SDS011;4236;54.504;9.588;2024-02-04T14:08:23;40.97;;;36.70;;
8397;SDS011;4236;54.504;9.588;2024-02-04T14:10:51;42.57;;;38.10;;
8397;SDS011;4236;54.504;9.588;2024-02-04T14:13:19;48.10;;;38.40;;
8397;SDS011;4236;54.504;9.588;2024-02-04T14:15:48;42.23;;;38.20;;
8397;SDS011;4236;54.504;9.588;2024-02-04T14:18:16;44.30;;;39.43;;
8397;SDS011;4236;54.504;9.588;2024-02-04T14:20:43;44.60;;;40.10;;
8397;SDS011;4236;54.504;9.588;2024-02-04T14:23:11;44.90;;;39.60;;
8397;SDS011;4236;54.504;9.588;2024-02-04T14:25:39;44.10;;;40.03;;
8397;SDS011;4236;54.504;9.588;2024-02-04T14:28:07;44.63;;;40.13;;
8397;SDS011;4236;54.504;9.588;2024-02-04T14:30:35;47.20;;;40.43;;
8397;SDS011;4236;54.504;9.588;2024-02-04T14:33:04;43.20;;;39.50;;
8397;SDS011;4236;54.504;9.588;2024-02-04T14:35:32;45.57;;;40.90;;
8397;SDS011;4236;54.504;9.588;2024-02-04T14:38:00;47.00;;;42.23;;
8397;SDS011;4236;54.504;9.588;2024-02-04T14:40:28;46.77;;;41.83;;
8397;SDS011;4236;54.504;9.588;2024-02-04T14:42:56;45.10;;;41.03;;
8397;SDS011;4236;54.504;9.588;2024-02-04T14:45:24;46.77;;;41.97;;
8397;SDS011;4236;54.504;9.588;2024-02-04T14:47:52;44.80;;;40.67;;
8397;SDS011;4236;54.504;9.588;2024-02-04T14:50:21;44.90;;;40.20;;
8397;SDS011;4236;54.504;9.588;2024-02-04T14:52:49;52.37;;;39.63;;
8397;SDS011;4236;54.504;9.588;2024-02-04T14:55:16;43.70;;;39.57;;
8397;SDS011;4236;54.504;9.588;2024-02-04T14:57:47;41.90;;;38.37;;